Time;durP1;ratioP1;P1;durP2;ratioP2;P2;SDS_P1;SDS_P2;PMS_P1;PMS_P2;Temp;Humidity;BMP_temperature;BMP_pressure;BME280_temperature;BME280_humidity;BME280_pressure;Samples;Min_cycle;Max_cycle;Signal;HPM_P1;HPM_P2
2022/05/15 00:02:09;;;;;;;;;;;9.40;99.90;;;;;;5153884;27;19919;-59
2022/05/15 00:04:35;;;;;;;;;;;9.50;99.90;;;;;;5155043;27;19929;-59
2022/05/15 00:07:01;;;;;;;;;;;9.50;99.90;;;;;;5155102;27;19926;-59
2022/05/15 00:09:27;;;;;;;;;;;9.50;99.90;;;;;;5153755;27;20365;-59
2022/05/15 00:11:52;;;;;;;;;;;9.60;99.90;;;;;;5136373;27;19923;-59
2022/05/15 00:14:18;;;;;;;;;;;9.70;99.90;;;;;;5154485;27;19926;-59
2022/05/15 00:16:44;;;;;;;;;;;9.70;99.90;;;;;;5147160;27;19923;-59
2022/05/15 00:19:10;;;;;;;;;;;9.70;99.90;;;;;;5135858;27;19974;-59
2022/05/15 00:21:36;;;;;;;;;;;9.70;99.90;;;;;;5154473;27;19938;-59
2022/05/15 00:24:03;;;;;;;;;;;9.70;99.90;;;;;;5153505;27;19962;-59
2022/05/15 00:26:29;;;;;;;;;;;9.70;99.90;;;;;;5148443;27;20373;-59
2022/05/15 00:28:55;;;;;;;;;;;9.80;99.90;;;;;;5153801;27;19930;-59
2022/05/15 00:31:21;;;;;;;;;;;9.70;99.90;;;;;;5154235;27;19930;-59
2022/05/15 00:33:47;;;;;;;;;;;9.60;99.90;;;;;;5154354;27;19927;-59
2022/05/15 00:36:12;;;;;;;;;;;9.70;99.90;;;;;;5150149;27;20285;-59
2022/05/15 00:38:38;;;;;;;;;;;9.60;99.90;;;;;;5135662;27;20288;-59
2022/05/15 00:41:04;;;;;;;;;;;9.60;99.90;;;;;;5158525;27;20527;-59
2022/05/15 00:43:44;;;;;;;;;;;9.50;99.90;;;;;;5136311;27;19931;-59
2022/05/15 00:46:21;;;;;;;;;;;9.50;99.90;;;;;;5156584;27;19923;-59
2022/05/15 00:48:48;;;;;;;;;;;9.40;99.90;;;;;;5156676;27;19981;-59
2022/05/15 00:51:16;;;;;;;;;;;9.40;99.90;;;;;;5138867;27;19923;-59
2022/05/15 00:53:42;;;;;;;;;;;9.40;99.90;;;;;;5153084;27;19930;-59
2022/05/15 00:56:09;;;;;;;;;;;9.50;99.90;;;;;;5158386;27;19923;-59
2022/05/15 00:58:37;;;;;;;;;;;9.40;99.90;;;;;;5139214;27;20018;-59
2022/05/15 01:01:04;;;;;;;;;;;9.40;99.90;;;;;;5145942;27;20045;-59
2022/05/15 01:03:29;;;;;;;;;;;9.40;99.90;;;;;;5157920;27;20365;-59
2022/05/15 01:05:56;;;;;;;;;;;9.40;99.90;;;;;;5121580;27;19975;-59
2022/05/15 01:08:27;;;;;;;;;;;9.30;99.90;;;;;;5137090;27;19927;-59
2022/05/15 01:10:55;;;;;;;;;;;9.30;99.90;;;;;;5120618;27;20006;-59
2022/05/15 01:13:22;;;;;;;;;;;9.20;99.90;;;;;;5136598;27;19983;-59
2022/05/15 01:15:48;;;;;;;;;;;9.10;99.90;;;;;;5137133;27;20350;-59
2022/05/15 01:18:21;;;;;;;;;;;9.00;99.90;;;;;;5136005;27;20358;-59
2022/05/15 01:20:46;;;;;;;;;;;8.90;99.90;;;;;;5157884;27;19980;-59
2022/05/15 01:23:13;;;;;;;;;;;8.90;99.90;;;;;;5157493;27;19923;-59
2022/05/15 01:25:39;;;;;;;;;;;8.80;99.90;;;;;;5137887;27;20296;-59
2022/05/15 01:28:07;;;;;;;;;;;8.70;99.90;;;;;;5119395;27;19927;-59
2022/05/15 01:30:35;;;;;;;;;;;8.60;99.90;;;;;;5138978;27;19923;-59
2022/05/15 01:33:01;;;;;;;;;;;8.50;99.90;;;;;;5121023;27;19929;-59
2022/05/15 01:35:27;;;;;;;;;;;8.40;99.90;;;;;;5139220;27;19974;-59
2022/05/15 01:37:53;;;;;;;;;;;8.30;99.90;;;;;;5118132;27;19959;-59
2022/05/15 01:40:19;;;;;;;;;;;8.30;99.90;;;;;;5138050;27;19923;-59
2022/05/15 01:42:45;;;;;;;;;;;8.30;99.90;;;;;;5139014;27;19923;-59
2022/05/15 01:45:12;;;;;;;;;;;8.10;99.90;;;;;;5134696;27;20004;-59
2022/05/15 01:47:37;;;;;;;;;;;8.20;99.90;;;;;;5157021;27;20377;-59
2022/05/15 01:50:05;;;;;;;;;;;8.20;99.90;;;;;;5139253;27;19919;-59
2022/05/15 01:52:31;;;;;;;;;;;8.20;99.90;;;;;;5138217;27;19923;-59
2022/05/15 01:54:56;;;;;;;;;;;8.10;99.90;;;;;;5154765;27;19934;-59
2022/05/15 01:57:24;;;;;;;;;;;8.20;99.90;;;;;;5138870;27;20005;-59
2022/05/15 01:59:49;;;;;;;;;;;8.20;99.90;;;;;;5120861;27;19993;-59
2022/05/15 02:02:15;;;;;;;;;;;8.10;99.90;;;;;;5137408;27;19992;-59
2022/05/15 02:04:44;;;;;;;;;;;8.00;99.90;;;;;;5138314;27;19919;-59
2022/05/15 02:07:10;;;;;;;;;;;8.10;99.90;;;;;;5155752;27;19937;-59
2022/05/15 02:09:36;;;;;;;;;;;8.10;99.90;;;;;;5138508;27;19926;-59
2022/05/15 02:12:02;;;;;;;;;;;8.00;99.90;;;;;;5137611;27;20409;-59
2022/05/15 02:14:28;;;;;;;;;;;8.00;99.90;;;;;;5137135;27;20823;-59
2022/05/15 02:16:54;;;;;;;;;;;8.00;99.90;;;;;;5135238;27;19923;-59
2022/05/15 02:19:20;;;;;;;;;;;7.90;99.90;;;;;;5138271;27;20330;-59
2022/05/15 02:21:47;;;;;;;;;;;8.00;99.90;;;;;;5133857;27;19923;-59
2022/05/15 02:24:13;;;;;;;;;;;8.00;99.90;;;;;;5138037;27;19923;-58
2022/05/15 02:26:39;;;;;;;;;;;8.00;99.90;;;;;;5136317;27;19923;-59
2022/05/15 02:29:05;;;;;;;;;;;8.00;99.90;;;;;;5134402;27;19934;-59
2022/05/15 02:31:31;;;;;;;;;;;8.00;99.90;;;;;;5156138;27;19930;-59
2022/05/15 02:33:58;;;;;;;;;;;8.00;99.90;;;;;;5138131;27;19919;-58
2022/05/15 02:36:25;;;;;;;;;;;8.10;99.90;;;;;;5136914;27;19950;-59
2022/05/15 02:38:50;;;;;;;;;;;8.10;99.90;;;;;;5134752;27;20349;-58
2022/05/15 02:41:16;;;;;;;;;;;8.10;99.90;;;;;;5137546;27;19966;-59
2022/05/15 02:43:42;;;;;;;;;;;8.30;99.90;;;;;;5136322;27;20023;-59
2022/05/15 02:46:08;;;;;;;;;;;8.20;99.90;;;;;;5138105;27;19927;-59
2022/05/15 02:51:18;;;;;;;;;;;8.20;99.90;;;;;;5136976;27;19973;-59
2022/05/15 02:53:45;;;;;;;;;;;8.20;99.90;;;;;;5137705;27;20034;-59
2022/05/15 02:56:13;;;;;;;;;;;8.10;99.90;;;;;;5120188;27;19923;-59
2022/05/15 02:58:38;;;;;;;;;;;8.20;99.90;;;;;;5155418;27;19933;-59
2022/05/15 03:01:04;;;;;;;;;;;8.20;99.90;;;;;;5137410;27;19923;-59
2022/05/15 03:03:30;;;;;;;;;;;8.10;99.90;;;;;;5154498;27;20280;-59
2022/05/15 03:05:56;;;;;;;;;;;8.10;99.90;;;;;;5155299;27;19927;-59
2022/05/15 03:08:22;;;;;;;;;;;8.10;99.90;;;;;;5137402;27;20407;-58
2022/05/15 03:10:48;;;;;;;;;;;8.10;99.90;;;;;;5155063;27;19927;-59
2022/05/15 03:13:14;;;;;;;;;;;8.10;99.90;;;;;;5136405;27;20338;-59
2022/05/15 03:15:40;;;;;;;;;;;8.10;99.90;;;;;;5154323;27;20006;-59
2022/05/15 03:18:05;;;;;;;;;;;8.10;99.90;;;;;;5143752;27;20377;-58
2022/05/15 03:20:31;;;;;;;;;;;8.00;99.90;;;;;;5137277;27;20394;-59
2022/05/15 03:22:58;;;;;;;;;;;8.00;99.90;;;;;;5145549;27;19919;-59
2022/05/15 03:25:26;;;;;;;;;;;7.90;99.90;;;;;;5134113;27;20391;-59
2022/05/15 03:27:52;;;;;;;;;;;7.90;99.90;;;;;;5135896;27;19923;-59
2022/05/15 03:30:18;;;;;;;;;;;7.90;99.90;;;;;;5137094;27;19926;-59
2022/05/15 03:32:43;;;;;;;;;;;7.90;99.90;;;;;;5136100;27;19923;-59
2022/05/15 03:35:09;;;;;;;;;;;7.80;99.90;;;;;;5155762;27;19923;-59
2022/05/15 03:37:35;;;;;;;;;;;7.90;99.90;;;;;;5154964;27;20365;-58
2022/05/15 03:40:00;;;;;;;;;;;7.90;99.90;;;;;;5131860;27;19924;-59
2022/05/15 03:42:27;;;;;;;;;;;7.90;99.90;;;;;;5143672;27;19923;-59
2022/05/15 03:44:53;;;;;;;;;;;7.80;99.90;;;;;;5154635;27;19929;-59
2022/05/15 03:47:19;;;;;;;;;;;7.70;99.90;;;;;;5154354;27;19923;-58
2022/05/15 03:49:45;;;;;;;;;;;7.50;99.90;;;;;;5133499;27;19919;-58
2022/05/15 03:52:11;;;;;;;;;;;7.50;99.90;;;;;;5154375;27;19950;-59
2022/05/15 03:54:38;;;;;;;;;;;7.40;99.90;;;;;;5135613;27;19919;-58
2022/05/15 03:57:04;;;;;;;;;;;7.20;99.90;;;;;;5154794;27;19968;-59
2022/05/15 03:59:31;;;;;;;;;;;7.20;99.90;;;;;;5151542;27;19923;-59
2022/05/15 04:01:57;;;;;;;;;;;7.10;99.90;;;;;;5153846;27;19930;-59
2022/05/15 04:04:27;;;;;;;;;;;7.10;99.90;;;;;;5133292;27;19932;-59
2022/05/15 04:06:52;;;;;;;;;;;7.10;99.90;;;;;;5131930;27;19923;-59
2022/05/15 04:09:19;;;;;;;;;;;7.00;99.90;;;;;;5144949;27;20369;-58
2022/05/15 04:11:44;;;;;;;;;;;7.00;99.90;;;;;;5154536;27;19923;-59
2022/05/15 04:14:10;;;;;;;;;;;7.10;99.90;;;;;;5117505;27;20134;-58
2022/05/15 04:16:36;;;;;;;;;;;7.10;99.90;;;;;;5132534;27;20075;-58
2022/05/15 04:19:03;;;;;;;;;;;7.20;99.90;;;;;;5154413;27;19974;-59
2022/05/15 04:21:30;;;;;;;;;;;7.30;99.90;;;;;;5134958;27;19919;-59
2022/05/15 04:23:55;;;;;;;;;;;7.30;99.90;;;;;;5135907;27;19937;-58
2022/05/15 04:26:21;;;;;;;;;;;7.40;99.90;;;;;;5150927;27;19919;-59
2022/05/15 04:28:47;;;;;;;;;;;7.50;99.90;;;;;;5132018;27;19923;-59
2022/05/15 04:31:12;;;;;;;;;;;7.50;99.90;;;;;;5154293;27;19930;-59
2022/05/15 04:33:38;;;;;;;;;;;7.50;99.90;;;;;;5151029;27;19920;-58
2022/05/15 04:36:04;;;;;;;;;;;7.60;99.90;;;;;;5153114;27;19923;-59
2022/05/15 04:38:30;;;;;;;;;;;7.70;99.90;;;;;;5154453;27;19923;-58
2022/05/15 04:40:55;;;;;;;;;;;7.80;99.90;;;;;;5135781;27;20017;-58
2022/05/15 04:43:21;;;;;;;;;;;7.90;99.90;;;;;;5149978;27;20014;-59
2022/05/15 04:45:47;;;;;;;;;;;8.00;99.90;;;;;;5151194;27;19930;-58
2022/05/15 04:48:14;;;;;;;;;;;8.10;99.90;;;;;;5154537;27;20022;-59
2022/05/15 04:50:40;;;;;;;;;;;8.20;99.90;;;;;;5150077;27;19968;-58
2022/05/15 04:53:06;;;;;;;;;;;8.30;99.90;;;;;;5154052;27;20280;-59
2022/05/15 04:55:31;;;;;;;;;;;8.40;99.90;;;;;;5154339;27;19934;-58
2022/05/15 04:57:57;;;;;;;;;;;8.40;99.90;;;;;;5153191;27;19930;-59
2022/05/15 05:00:23;;;;;;;;;;;8.60;99.90;;;;;;5132388;27;19923;-59
2022/05/15 05:02:49;;;;;;;;;;;8.70;99.90;;;;;;5153973;27;19930;-59
2022/05/15 05:05:14;;;;;;;;;;;8.80;99.90;;;;;;5153049;27;19934;-58
2022/05/15 05:07:40;;;;;;;;;;;8.90;99.90;;;;;;5154245;27;19923;-59
2022/05/15 05:10:07;;;;;;;;;;;9.10;99.90;;;;;;5133571;27;20210;-58
2022/05/15 05:12:32;;;;;;;;;;;9.20;99.90;;;;;;5135053;27;20009;-59
2022/05/15 05:14:58;;;;;;;;;;;9.40;99.90;;;;;;5153957;27;20010;-58
2022/05/15 05:17:25;;;;;;;;;;;9.50;99.90;;;;;;5150512;27;19927;-59
2022/05/15 05:19:50;;;;;;;;;;;9.60;99.90;;;;;;5135274;27;19984;-58
2022/05/15 05:22:16;;;;;;;;;;;9.80;99.90;;;;;;5153963;27;19927;-58
2022/05/15 05:24:41;;;;;;;;;;;10.00;99.90;;;;;;5153207;27;19934;-59
2022/05/15 05:27:07;;;;;;;;;;;10.10;99.90;;;;;;5151967;27;19923;-59
2022/05/15 05:29:34;;;;;;;;;;;10.20;99.90;;;;;;5157618;27;20404;-58
2022/05/15 05:31:59;;;;;;;;;;;10.40;99.90;;;;;;5157035;27;19923;-59
2022/05/15 05:34:25;;;;;;;;;;;10.60;99.90;;;;;;5157024;27;20270;-59
2022/05/15 05:36:51;;;;;;;;;;;10.70;99.90;;;;;;5155341;27;20317;-59
2022/05/15 05:39:17;;;;;;;;;;;10.90;99.90;;;;;;5156779;27;20026;-59
2022/05/15 05:41:42;;;;;;;;;;;11.00;99.90;;;;;;5156980;27;19931;-59
2022/05/15 05:44:08;;;;;;;;;;;11.20;99.90;;;;;;5156859;27;19919;-59
2022/05/15 05:46:34;;;;;;;;;;;11.30;99.90;;;;;;5138010;27;19923;-59
2022/05/15 05:48:59;;;;;;;;;;;11.40;99.90;;;;;;5156709;27;20383;-59
2022/05/15 05:51:25;;;;;;;;;;;11.60;99.90;;;;;;5138893;27;19923;-59
2022/05/15 05:53:51;;;;;;;;;;;11.70;99.90;;;;;;5155632;27;20280;-59
2022/05/15 05:56:16;;;;;;;;;;;11.80;99.90;;;;;;5156675;27;20331;-59
2022/05/15 05:58:42;;;;;;;;;;;12.00;99.90;;;;;;5157301;27;20376;-58
2022/05/15 06:01:08;;;;;;;;;;;12.10;99.90;;;;;;5156026;27;19923;-59
2022/05/15 06:06:18;;;;;;;;;;;12.30;99.90;;;;;;5155080;27;19923;-59
2022/05/15 06:08:43;;;;;;;;;;;12.40;99.90;;;;;;5156935;27;20395;-59
2022/05/15 06:11:10;;;;;;;;;;;12.50;99.90;;;;;;5153246;27;19923;-59
2022/05/15 06:13:35;;;;;;;;;;;12.70;99.90;;;;;;5156221;27;19923;-59
2022/05/15 06:16:01;;;;;;;;;;;12.80;99.90;;;;;;5134851;27;19923;-59
2022/05/15 06:18:27;;;;;;;;;;;12.90;99.90;;;;;;5137405;27;19931;-59
2022/05/15 06:20:52;;;;;;;;;;;13.00;99.90;;;;;;5152695;27;19929;-59
2022/05/15 06:23:19;;;;;;;;;;;13.10;99.90;;;;;;5157079;27;19923;-59
2022/05/15 06:25:44;;;;;;;;;;;13.20;99.90;;;;;;5138169;27;20365;-59
2022/05/15 06:28:10;;;;;;;;;;;13.30;99.90;;;;;;5155781;27;19944;-59
2022/05/15 06:30:37;;;;;;;;;;;13.50;99.90;;;;;;5156768;27;19927;-58
2022/05/15 06:33:04;;;;;;;;;;;13.50;99.90;;;;;;5156492;27;20388;-59
2022/05/15 06:35:30;;;;;;;;;;;13.70;99.90;;;;;;5137337;27;19923;-59
2022/05/15 06:37:56;;;;;;;;;;;13.80;99.90;;;;;;5143048;27;19928;-59
2022/05/15 06:40:21;;;;;;;;;;;13.90;99.90;;;;;;5107179;27;19975;-59
2022/05/15 06:42:47;;;;;;;;;;;14.00;99.90;;;;;;5152354;27;19923;-59
2022/05/15 06:45:15;;;;;;;;;;;14.10;99.90;;;;;;5155117;27;19919;-59
2022/05/15 06:47:41;;;;;;;;;;;14.30;99.90;;;;;;5153191;27;20301;-59
2022/05/15 06:50:07;;;;;;;;;;;14.40;99.90;;;;;;5155032;27;19927;-59
2022/05/15 06:52:33;;;;;;;;;;;14.50;99.90;;;;;;5156357;27;20006;-59
2022/05/15 06:54:59;;;;;;;;;;;14.60;99.90;;;;;;5153470;27;19976;-59
2022/05/15 06:57:32;;;;;;;;;;;14.60;99.90;;;;;;5154770;27;19923;-59
2022/05/15 06:59:59;;;;;;;;;;;14.80;99.90;;;;;;5156176;27;19968;-59
2022/05/15 07:02:25;;;;;;;;;;;14.90;99.90;;;;;;5156182;27;19919;-59
2022/05/15 07:04:52;;;;;;;;;;;15.00;99.90;;;;;;5154623;27;20433;-59
2022/05/15 07:07:18;;;;;;;;;;;15.10;99.90;;;;;;5137589;27;19973;-59
2022/05/15 07:09:43;;;;;;;;;;;15.20;99.90;;;;;;5155523;27;19919;-59
2022/05/15 07:12:09;;;;;;;;;;;15.30;99.90;;;;;;5155136;27;19999;-59
2022/05/15 07:14:35;;;;;;;;;;;15.50;99.90;;;;;;5155873;27;19930;-60
2022/05/15 07:17:01;;;;;;;;;;;15.60;99.90;;;;;;5141458;27;19924;-59
2022/05/15 07:19:27;;;;;;;;;;;15.70;99.90;;;;;;5155498;27;19923;-60
2022/05/15 07:21:52;;;;;;;;;;;15.80;99.90;;;;;;5154171;27;19919;-59
2022/05/15 07:24:19;;;;;;;;;;;15.90;99.90;;;;;;5154334;27;20281;-59
2022/05/15 07:26:45;;;;;;;;;;;16.00;99.90;;;;;;5155262;27;19923;-59
2022/05/15 07:29:12;;;;;;;;;;;16.10;99.90;;;;;;5119808;27;19929;-59
2022/05/15 07:31:37;;;;;;;;;;;16.20;99.90;;;;;;5151195;27;19923;-60
2022/05/15 07:34:03;;;;;;;;;;;16.20;99.90;;;;;;5154642;27;20395;-59
2022/05/15 07:36:29;;;;;;;;;;;16.40;99.90;;;;;;5155384;27;19930;-60
2022/05/15 07:38:54;;;;;;;;;;;16.50;99.90;;;;;;5142640;27;19927;-60
2022/05/15 07:41:20;;;;;;;;;;;16.60;99.90;;;;;;5153678;27;20010;-60
2022/05/15 07:43:46;;;;;;;;;;;16.70;99.90;;;;;;5154892;27;19975;-60
2022/05/15 07:46:11;;;;;;;;;;;16.90;99.90;;;;;;5154712;27;20337;-60
2022/05/15 07:48:37;;;;;;;;;;;17.00;99.90;;;;;;5154241;27;19923;-60
2022/05/15 07:51:03;;;;;;;;;;;17.10;99.90;;;;;;5155434;27;19923;-60
2022/05/15 07:53:29;;;;;;;;;;;17.30;99.90;;;;;;5132177;27;19978;-59
2022/05/15 07:55:55;;;;;;;;;;;17.30;99.90;;;;;;5134072;27;19993;-60
2022/05/15 07:58:23;;;;;;;;;;;17.40;99.90;;;;;;5134682;27;19930;-60
2022/05/15 08:00:52;;;;;;;;;;;17.60;99.90;;;;;;5133821;27;20284;-60
2022/05/15 08:03:17;;;;;;;;;;;17.70;99.90;;;;;;5134169;27;19923;-60
2022/05/15 08:08:28;;;;;;;;;;;17.90;99.90;;;;;;5154879;27;20411;-60
2022/05/15 08:10:53;;;;;;;;;;;18.00;99.90;;;;;;5138850;27;19924;-59
2022/05/15 08:13:21;;;;;;;;;;;18.10;99.90;;;;;;5153142;27;20026;-59
2022/05/15 08:15:47;;;;;;;;;;;18.20;99.90;;;;;;5151812;27;19957;-60
2022/05/15 08:23:44;;;;;;;;;;;18.50;99.90;;;;;;5154605;27;19923;-60
2022/05/15 08:26:11;;;;;;;;;;;18.60;99.90;;;;;;5149656;27;19919;-60
2022/05/15 08:28:37;;;;;;;;;;;18.80;99.90;;;;;;5124289;27;19934;-60
2022/05/15 08:31:03;;;;;;;;;;;18.90;99.90;;;;;;5154722;27;19923;-60
2022/05/15 08:33:30;;;;;;;;;;;18.90;99.90;;;;;;5136316;27;19959;-60
2022/05/15 08:35:56;;;;;;;;;;;19.00;99.90;;;;;;5133637;28;19975;-60
2022/05/15 08:38:22;;;;;;;;;;;19.20;99.90;;;;;;5134185;28;19923;-60
2022/05/15 08:40:57;;;;;;;;;;;19.40;99.90;;;;;;5119693;27;20281;-59
2022/05/15 08:43:33;;;;;;;;;;;19.60;99.90;;;;;;5154146;27;19924;-60
2022/05/15 08:46:03;;;;;;;;;;;19.70;99.90;;;;;;5154450;27;20419;-60
2022/05/15 08:48:31;;;;;;;;;;;19.80;99.90;;;;;;5153837;27;19923;-60
2022/05/15 08:51:00;;;;;;;;;;;19.90;99.90;;;;;;5103069;28;19920;-60
2022/05/15 08:53:29;;;;;;;;;;;20.00;99.90;;;;;;5139346;27;19969;-60
2022/05/15 08:55:57;;;;;;;;;;;20.10;99.90;;;;;;5153656;27;20040;-59
2022/05/15 08:58:30;;;;;;;;;;;20.20;99.90;;;;;;5154005;27;20397;-60
2022/05/15 09:00:56;;;;;;;;;;;20.30;99.90;;;;;;5154517;27;20051;-60
2022/05/15 09:03:23;;;;;;;;;;;20.50;99.90;;;;;;5157337;27;20409;-60
2022/05/15 09:05:50;;;;;;;;;;;20.60;99.90;;;;;;5158646;27;19930;-59
2022/05/15 09:08:18;;;;;;;;;;;;;;;;;;5158133;27;19930;-59
2022/05/15 09:10:48;;;;;;;;;;;20.30;99.90;;;;;;5138955;27;19929;-60
2022/05/15 09:13:16;;;;;;;;;;;;;;;;;;5158503;27;19985;-60
2022/05/15 09:15:44;;;;;;;;;;;;;;;;;;5156779;27;20383;-60
2022/05/15 09:18:14;;;;;;;;;;;20.70;99.90;;;;;;5138466;27;19923;-60
2022/05/15 09:20:41;;;;;;;;;;;;;;;;;;5158368;27;19923;-60
2022/05/15 09:23:29;;;;;;;;;;;21.20;99.90;;;;;;5157851;27;19993;-60
2022/05/15 09:25:56;;;;;;;;;;;21.50;99.90;;;;;;5154758;27;19923;-60
2022/05/15 09:28:26;;;;;;;;;;;21.70;99.90;;;;;;5144798;27;19930;-60
2022/05/15 09:30:52;;;;;;;;;;;21.70;98.40;;;;;;5157237;27;20322;-60
2022/05/15 09:33:28;;;;;;;;;;;21.50;98.50;;;;;;5157906;27;19931;-60
2022/05/15 09:36:12;;;;;;;;;;;21.60;95.50;;;;;;5157768;27;19919;-60
2022/05/15 09:38:38;;;;;;;;;;;21.50;97.10;;;;;;5156973;27;19933;-60
2022/05/15 09:43:55;;;;;;;;;;;21.60;96.90;;;;;;5142945;27;19923;-60
2022/05/15 09:46:24;;;;;;;;;;;21.90;96.60;;;;;;5136786;27;19923;-60
2022/05/15 09:48:53;;;;;;;;;;;22.00;96.20;;;;;;5157500;27;20011;-60
2022/05/15 09:51:27;;;;;;;;;;;22.20;95.60;;;;;;5138796;27;19941;-60
2022/05/15 09:53:53;;;;;;;;;;;22.30;92.80;;;;;;5138509;27;20292;-60
2022/05/15 09:56:19;;;;;;;;;;;22.30;94.60;;;;;;5158032;27;19923;-60
2022/05/15 09:59:04;;;;;;;;;;;22.40;94.10;;;;;;5156562;27;19927;-60
2022/05/15 10:01:35;;;;;;;;;;;22.40;92.90;;;;;;5156553;27;20007;-60
2022/05/15 10:04:03;;;;;;;;;;;22.40;94.10;;;;;;5157628;27;19975;-60
2022/05/15 10:06:30;;;;;;;;;;;22.40;94.50;;;;;;5156515;27;20437;-60
2022/05/15 10:09:07;;;;;;;;;;;22.60;93.60;;;;;;5156687;27;20349;-60
2022/05/15 10:11:33;;;;;;;;;;;;;;;;;;5154381;27;19974;-60
2022/05/15 10:14:00;;;;;;;;;;;22.50;91.50;;;;;;5155114;27;19927;-62
2022/05/15 10:16:28;;;;;;;;;;;22.70;92.90;;;;;;5156346;27;19930;-59
2022/05/15 10:19:02;;;;;;;;;;;22.80;89.80;;;;;;5156268;27;19967;-59
2022/05/15 10:21:32;;;;;;;;;;;23.00;90.20;;;;;;5155964;27;20447;-59
2022/05/15 10:24:00;;;;;;;;;;;23.40;91.00;;;;;;5137720;27;20293;-59
2022/05/15 10:26:26;;;;;;;;;;;;;;;;;;5131189;27;19927;-59
2022/05/15 10:28:55;;;;;;;;;;;24.60;84.30;;;;;;5137401;27;20002;-59
2022/05/15 10:31:22;;;;;;;;;;;;;;;;;;5154109;27;19926;-59
2022/05/15 10:33:49;;;;;;;;;;;25.40;92.30;;;;;;5155015;27;19927;-59
2022/05/15 10:36:15;;;;;;;;;;;25.70;68.10;;;;;;5149738;27;19923;-59
2022/05/15 10:38:46;;;;;;;;;;;26.20;70.00;;;;;;5152879;27;20377;-59
2022/05/15 10:41:15;;;;;;;;;;;26.70;68.60;;;;;;5155252;27;19923;-59
2022/05/15 10:43:53;;;;;;;;;;;27.10;61.90;;;;;;5153408;27;19923;-59
2022/05/15 10:46:19;;;;;;;;;;;;;;;;;;5155182;27;19945;-59
2022/05/15 10:48:45;;;;;;;;;;;;;;;;;;5155462;27;19946;-59
2022/05/15 10:51:11;;;;;;;;;;;;;;;;;;5138937;27;19931;-59
2022/05/15 10:59:20;;;;;;;;;;;29.30;52.90;;;;;;5156211;27;19923;-59
2022/05/15 11:01:53;;;;;;;;;;;29.40;53.00;;;;;;5150354;27;19924;-59
2022/05/15 11:04:41;;;;;;;;;;;29.50;50.50;;;;;;5134810;27;20577;-59
2022/05/15 11:07:21;;;;;;;;;;;29.80;50.90;;;;;;5135270;27;19923;-59
2022/05/15 11:09:46;;;;;;;;;;;30.10;50.80;;;;;;5152915;27;20542;-60
2022/05/15 11:12:12;;;;;;;;;;;30.30;48.20;;;;;;5154785;27;19937;-59
2022/05/15 11:15:00;;;;;;;;;;;30.30;48.60;;;;;;5155285;27;19935;-60
2022/05/15 11:17:28;;;;;;;;;;;30.40;48.30;;;;;;5151981;27;19929;-60
2022/05/15 11:19:57;;;;;;;;;;;30.50;47.90;;;;;;5119779;27;19923;-60
2022/05/15 11:22:27;;;;;;;;;;;30.60;47.40;;;;;;5154549;27;21256;-60
2022/05/15 11:24:56;;;;;;;;;;;30.60;47.30;;;;;;5135835;27;20300;-60
2022/05/15 11:27:31;;;;;;;;;;;30.50;46.80;;;;;;5137409;27;20341;-60
2022/05/15 11:29:58;;;;;;;;;;;30.70;46.80;;;;;;5147412;27;19923;-60
2022/05/15 11:32:28;;;;;;;;;;;31.10;46.50;;;;;;5155512;27;19923;-60
2022/05/15 11:35:10;;;;;;;;;;;31.50;45.90;;;;;;5155371;27;19929;-60
2022/05/15 13:44:50;;;;;;;37.58;35.47;;;27.50;49.30;;;;;;5146922;27;20511;-61
2022/05/15 13:47:16;;;;;;;36.97;34.63;;;27.90;48.80;;;;;;5141614;27;20038;-61
2022/05/15 13:49:43;;;;;;;37.15;35.10;;;28.10;48.50;;;;;;5145153;27;20039;-62
2022/05/15 13:52:28;;;;;;;37.65;35.75;;;28.10;49.00;;;;;;5146764;27;20071;-62
2022/05/15 13:54:56;;;;;;;40.50;38.20;;;28.20;48.50;;;;;;5132434;27;20539;-62
2022/05/15 13:57:22;;;;;;;38.40;36.40;;;28.30;47.20;;;;;;5118472;28;20054;-62
2022/05/15 13:59:49;;;;;;;37.03;35.05;;;28.40;47.60;;;;;;5130755;27;20126;-62
2022/05/15 14:02:24;;;;;;;36.80;34.53;;;28.40;47.10;;;;;;5129465;28;20058;-62
2022/05/15 14:05:11;;;;;;;38.58;36.67;;;28.40;46.30;;;;;;5143697;27;20047;-62
2022/05/15 14:07:40;;;;;;;37.83;35.75;;;28.40;46.00;;;;;;5147941;27;20590;-62
2022/05/15 14:10:13;;;;;;;38.97;36.60;;;28.50;46.00;;;;;;5150256;27;20070;-62
2022/05/15 14:12:49;;;;;;;38.63;36.63;;;28.40;45.50;;;;;;5151077;27;20049;-62
2022/05/15 14:15:45;;;;;;;40.17;37.80;;;28.30;46.20;;;;;;5150897;27;20059;-62
2022/05/15 14:18:34;;;;;;;37.30;35.45;;;28.50;46.80;;;;;;5150062;27;20074;-62
2022/05/15 14:21:10;;;;;;;38.00;35.78;;;29.00;46.40;;;;;;5151084;27;20115;-62
2022/05/15 14:23:36;;;;;;;37.30;35.28;;;29.70;45.20;;;;;;5150796;27;20042;-62
2022/05/15 14:26:02;;;;;;;37.00;34.95;;;30.10;42.60;;;;;;5150035;27;20091;-62
2022/05/15 14:28:28;;;;;;;38.22;36.08;;;30.50;42.60;;;;;;5150716;27;20047;-62
2022/05/15 14:30:53;;;;;;;36.63;34.42;;;30.90;42.10;;;;;;5150691;27;20042;-62
2022/05/15 14:33:24;;;;;;;36.80;34.75;;;31.20;41.50;;;;;;5149488;27;20050;-62
2022/05/15 14:35:56;;;;;;;37.33;35.35;;;31.50;41.00;;;;;;5150821;27;20057;-62
2022/05/15 14:38:22;;;;;;;36.67;34.65;;;32.00;40.70;;;;;;5146218;27;20043;-62
2022/05/15 14:40:48;;;;;;;39.55;37.40;;;32.10;40.00;;;;;;5136236;27;20035;-62
2022/05/15 14:43:14;;;;;;;41.72;39.50;;;31.90;40.40;;;;;;5136806;27;20051;-62
2022/05/15 14:45:44;;;;;;;42.83;40.45;;;32.20;40.10;;;;;;5117554;27;20051;-62
2022/05/15 14:48:12;;;;;;;43.72;41.30;;;;;;;;;;5117506;27;20086;-62
2022/05/15 14:50:38;;;;;;;42.90;40.60;;;32.40;78.30;;;;;;5114563;28;20396;-62
2022/05/15 14:53:06;;;;;;;42.78;40.55;;;32.80;72.30;;;;;;5113931;28;20130;-62
2022/05/15 14:58:19;;;;;;;42.20;39.70;;;;;;;;;;5118304;27;20389;-62
2022/05/15 15:00:45;;;;;;;43.15;40.90;;;;;;;;;;5135437;27;20049;-62
2022/05/15 15:03:11;;;;;;;45.00;42.40;;;;;;;;;;5136056;27;20490;-62
2022/05/15 15:05:45;;;;;;;46.28;43.80;;;;;;;;;;5136250;27;20525;-62
2022/05/15 15:08:13;;;;;;;48.20;45.63;;;;;;;;;;5135089;27;20058;-62
2022/05/15 15:10:40;;;;;;;47.97;45.30;;;;;;;;;;5135902;27;20054;-62
2022/05/15 15:13:07;;;;;;;50.95;48.30;;;;;;;;;;5135891;27;20068;-62
2022/05/15 15:15:35;;;;;;;51.45;48.83;;;;;;;;;;5135793;27;20434;-62
2022/05/15 15:18:01;;;;;;;54.20;51.50;;;33.80;38.40;;;;;;5135505;27;20055;-62
2022/05/15 15:20:27;;;;;;;56.42;53.45;;;33.80;38.40;;;;;;5135362;27;20043;-62
2022/05/15 15:22:52;;;;;;;57.67;54.97;;;34.00;37.40;;;;;;5134721;27;20467;-62
2022/05/15 15:25:18;;;;;;;59.75;57.00;;;34.00;37.50;;;;;;5135230;27;20042;-62
2022/05/15 15:27:44;;;;;;;60.72;57.63;;;34.00;37.30;;;;;;5134695;27;20051;-63
2022/05/15 15:30:11;;;;;;;63.28;60.22;;;34.00;36.70;;;;;;5135883;27;20070;-62
2022/05/15 15:32:37;;;;;;;65.47;62.47;;;34.10;36.60;;;;;;5117109;27;20112;-62
2022/05/15 15:35:03;;;;;;;71.13;67.60;;;34.20;36.90;;;;;;5134580;27;20051;-62
2022/05/15 15:40:13;;;;;;;83.60;79.75;;;34.60;36.70;;;;;;5114837;28;20595;-62
2022/05/15 15:42:42;;;;;;;80.82;77.18;;;34.60;36.80;;;;;;5119147;27;20047;-62
2022/05/15 15:45:09;;;;;;;77.13;73.53;;;34.50;36.70;;;;;;5117434;27;20476;-62
2022/05/15 15:47:36;;;;;;;74.38;71.00;;;34.30;36.50;;;;;;5134933;27;20057;-62
2022/05/15 15:50:03;;;;;;;74.20;70.93;;;33.90;36.80;;;;;;5134229;27;20107;-62
2022/05/15 15:52:30;;;;;;;73.40;70.13;;;33.70;37.20;;;;;;5128057;27;20053;-62
2022/05/15 15:54:55;;;;;;;72.18;68.93;;;33.70;37.60;;;;;;5134360;27;20047;-62
2022/05/15 15:57:21;;;;;;;72.55;69.05;;;33.70;37.20;;;;;;5134089;27;20034;-63
2022/05/15 15:59:48;;;;;;;69.15;65.78;;;33.70;37.30;;;;;;5135187;27;20044;-62
2022/05/15 16:02:13;;;;;;;69.05;65.82;;;33.70;37.20;;;;;;5115516;27;20369;-62
2022/05/15 16:04:39;;;;;;;71.93;68.55;;;33.40;36.90;;;;;;5134058;27;20045;-62
2022/05/15 16:07:05;;;;;;;74.85;71.22;;;33.00;37.20;;;;;;5134618;27;20043;-62
2022/05/15 16:09:32;;;;;;;77.68;74.07;;;32.60;38.00;;;;;;5133508;27;20370;-62
2022/05/15 16:11:57;;;;;;;78.20;74.63;;;32.70;39.10;;;;;;5135183;27;20036;-62
2022/05/15 16:14:25;;;;;;;75.70;72.10;;;33.10;39.40;;;;;;5134957;27;20054;-62
2022/05/15 16:16:51;;;;;;;78.97;75.00;;;33.30;38.80;;;;;;5134078;27;20050;-62
2022/05/15 16:19:16;;;;;;;75.80;72.28;;;33.30;39.50;;;;;;5134519;27;20044;-62
2022/05/15 16:21:52;;;;;;;75.85;72.22;;;33.20;39.60;;;;;;5134806;27;20041;-62
2022/05/15 16:24:22;;;;;;;74.45;70.70;;;33.20;39.60;;;;;;5133298;27;20042;-62
2022/05/15 16:26:51;;;;;;;73.70;70.13;;;33.20;39.90;;;;;;5133703;27;20476;-62
2022/05/15 16:29:17;;;;;;;76.10;72.55;;;33.20;40.10;;;;;;5131449;27;20058;-62
2022/05/15 16:31:45;;;;;;;72.78;69.30;;;33.10;40.40;;;;;;5133467;27;20043;-62
2022/05/15 16:34:11;;;;;;;72.10;68.88;;;33.10;40.80;;;;;;5134610;27;20108;-62
2022/05/15 16:36:37;;;;;;;72.53;69.22;;;32.90;40.70;;;;;;5134071;27;20039;-62
2022/05/15 16:39:03;;;;;;;74.65;71.00;;;32.70;40.30;;;;;;5132518;27;20051;-62
2022/05/15 16:41:29;;;;;;;75.35;72.03;;;32.40;40.90;;;;;;5134360;27;20492;-62